createdAt,value
2016-09-30T00:00:50.325Z,0
2016-09-30T00:01:50.110Z,0
2016-09-30T00:02:50.030Z,0
2016-09-30T00:03:50.498Z,0
2016-09-30T00:04:50.452Z,0
2016-09-30T00:05:50.094Z,0
2016-09-30T00:06:50.193Z,0
2016-09-30T00:07:50.453Z,0
2016-09-30T00:08:50.552Z,0
2016-09-30T00:09:50.176Z,0
2016-09-30T00:10:50.490Z,0
2016-09-30T00:11:50.259Z,0
2016-09-30T00:12:50.522Z,0
2016-09-30T00:13:50.581Z,0
2016-09-30T00:14:50.372Z,0
2016-09-30T00:15:50.582Z,0
2016-09-30T00:16:50.609Z,0
2016-09-30T00:17:50.663Z,0
2016-09-30T00:18:50.673Z,0
2016-09-30T00:19:50.423Z,0
2016-09-30T00:20:50.712Z,0
2016-09-30T00:21:50.520Z,0
2016-09-30T00:22:50.452Z,0
2016-09-30T00:23:50.764Z,0
2016-09-30T00:24:50.160Z,0
2016-09-30T00:25:50.513Z,0
2016-09-30T00:26:50.532Z,0
2016-09-30T00:27:50.883Z,0
2016-09-30T00:28:50.886Z,0
2016-09-30T00:29:51.023Z,0
2016-09-30T00:30:50.985Z,0
2016-09-30T00:31:50.983Z,0
2016-09-30T00:32:50.651Z,0
2016-09-30T00:33:50.976Z,0
2016-09-30T00:34:50.991Z,0
2016-09-30T00:35:51.007Z,0
2016-09-30T00:36:51.029Z,0
2016-09-30T00:37:50.820Z,0
2016-09-30T00:38:50.751Z,0
2016-09-30T00:39:51.080Z,0
2016-09-30T00:40:51.129Z,0
2016-09-30T00:41:51.227Z,0
2016-09-30T00:42:51.170Z,0
2016-09-30T00:43:51.228Z,0
2016-09-30T00:44:50.948Z,0
2016-09-30T00:45:50.905Z,0
2016-09-30T00:46:51.258Z,0
2016-09-30T00:47:50.959Z,0
2016-09-30T00:48:51.284Z,0
2016-09-30T00:49:51.289Z,0
2016-09-30T00:50:50.692Z,0
2016-09-30T00:51:51.033Z,0
2016-09-30T00:52:51.022Z,0
2016-09-30T00:53:51.515Z,0
2016-09-30T00:54:51.414Z,0
2016-09-30T00:55:51.422Z,0
2016-09-30T00:56:51.455Z,0
2016-09-30T00:57:51.512Z,0
2016-09-30T00:58:51.479Z,0
2016-09-30T00:59:51.516Z,0
2016-09-30T01:00:51.514Z,0
2016-09-30T01:01:50.899Z,0
2016-09-30T01:02:51.570Z,0
2016-09-30T01:03:51.277Z,0
2016-09-30T01:04:51.595Z,0
2016-09-30T01:05:51.742Z,0
2016-09-30T01:06:51.762Z,0
2016-09-30T01:07:51.653Z,0
2016-09-30T01:08:51.444Z,0
2016-09-30T01:09:51.187Z,0
2016-09-30T01:10:51.449Z,0
2016-09-30T01:11:51.435Z,0
2016-09-30T01:12:51.754Z,0
2016-09-30T01:13:51.781Z,0
2016-09-30T01:14:51.188Z,0
2016-09-30T01:15:51.823Z,0
2016-09-30T01:16:51.849Z,0
2016-09-30T01:17:51.254Z,0
2016-09-30T01:18:51.579Z,0
2016-09-30T01:19:51.581Z,0
2016-09-30T01:20:51.971Z,0
2016-09-30T01:21:51.624Z,0
2016-09-30T01:22:51.963Z,0
2016-09-30T01:23:51.978Z,0
2016-09-30T01:24:52.039Z,0
2016-09-30T01:25:52.381Z,0
2016-09-30T01:26:52.041Z,0
2016-09-30T01:27:52.070Z,0
2016-09-30T01:28:52.081Z,0
2016-09-30T01:29:52.106Z,0
2016-09-30T01:30:51.852Z,0
2016-09-30T01:31:52.242Z,0
2016-09-30T01:32:52.223Z,0
2016-09-30T01:33:51.585Z,0
2016-09-30T01:34:52.209Z,0
2016-09-30T01:35:51.933Z,0
2016-09-30T01:36:51.673Z,0
2016-09-30T01:37:51.771Z,0
2016-09-30T01:38:52.303Z,0
2016-09-30T01:39:52.023Z,0
2016-09-30T01:40:52.321Z,0
2016-09-30T01:41:51.762Z,0
2016-09-30T01:42:51.755Z,0
2016-09-30T01:43:52.190Z,0
2016-09-30T01:44:52.166Z,0
2016-09-30T01:45:52.513Z,0
2016-09-30T01:46:52.147Z,0
2016-09-30T01:47:51.915Z,0
2016-09-30T01:48:52.505Z,0
2016-09-30T01:49:52.274Z,0
2016-09-30T01:50:52.359Z,0
2016-09-30T01:51:52.259Z,0
2016-09-30T01:52:52.584Z,0
2016-09-30T01:53:52.393Z,0
2016-09-30T01:54:52.762Z,0
2016-09-30T01:55:52.140Z,0
2016-09-30T01:56:52.361Z,0
2016-09-30T01:57:52.385Z,0
2016-09-30T01:58:52.761Z,0
2016-09-30T01:59:52.778Z,0
2016-09-30T02:00:52.492Z,0
2016-09-30T02:01:52.773Z,0
2016-09-30T02:02:52.307Z,0
2016-09-30T02:03:52.811Z,0
2016-09-30T02:04:52.841Z,0
2016-09-30T02:05:52.531Z,0
2016-09-30T02:06:52.271Z,0
2016-09-30T02:07:53.017Z,0
2016-09-30T02:08:52.688Z,0
2016-09-30T02:09:52.941Z,0
2016-09-30T02:10:53.001Z,0
2016-09-30T02:11:53.047Z,0
2016-09-30T02:12:52.701Z,0
2016-09-30T02:13:53.044Z,0
2016-09-30T02:14:53.054Z,0
2016-09-30T02:15:52.770Z,0
2016-09-30T02:16:52.469Z,0
2016-09-30T02:17:52.808Z,0
2016-09-30T02:18:52.811Z,0
2016-09-30T02:19:52.824Z,0
2016-09-30T02:20:53.186Z,0
2016-09-30T02:21:52.922Z,0
2016-09-30T02:22:53.277Z,0
2016-09-30T02:23:53.295Z,0
2016-09-30T02:24:52.993Z,0
2016-09-30T02:25:52.953Z,0
2016-09-30T02:26:53.290Z,0
2016-09-30T02:27:53.002Z,0
2016-09-30T02:28:53.033Z,0
2016-09-30T02:29:53.352Z,0
2016-09-30T02:30:53.073Z,0
2016-09-30T02:31:53.086Z,0
2016-09-30T02:32:52.811Z,0
2016-09-30T02:33:52.517Z,0
2016-09-30T02:34:52.829Z,0
2016-09-30T02:35:53.580Z,0
2016-09-30T02:36:53.184Z,0
2016-09-30T02:37:53.522Z,0
2016-09-30T02:38:53.240Z,0
2016-09-30T02:39:53.259Z,0
2016-09-30T02:40:53.276Z,0
2016-09-30T02:41:53.587Z,0
2016-09-30T02:42:53.631Z,0
2016-09-30T02:43:53.770Z,0
2016-09-30T02:44:53.763Z,0
2016-09-30T02:45:53.577Z,0
2016-09-30T02:46:53.493Z,0
2016-09-30T02:47:53.449Z,0
2016-09-30T02:48:53.764Z,0
2016-09-30T02:49:53.440Z,0
2016-09-30T02:50:54.107Z,0
2016-09-30T02:51:53.591Z,0
2016-09-30T02:52:53.509Z,0
2016-09-30T02:53:53.850Z,0
2016-09-30T02:54:53.554Z,0
2016-09-30T02:55:53.579Z,0
2016-09-30T02:56:53.616Z,0
2016-09-30T02:57:53.928Z,0
2016-09-30T02:58:53.955Z,0
2016-09-30T02:59:54.090Z,0
2016-09-30T03:00:54.244Z,0
2016-09-30T03:01:53.431Z,0
2016-09-30T03:02:53.883Z,0
2016-09-30T03:03:53.794Z,0
2016-09-30T03:04:54.103Z,0
2016-09-30T03:05:53.203Z,0
2016-09-30T03:06:54.151Z,0
2016-09-30T03:07:54.294Z,0
2016-09-30T03:08:53.840Z,0
2016-09-30T03:09:54.279Z,0
2016-09-30T03:10:54.207Z,0
2016-09-30T03:11:53.926Z,0
2016-09-30T03:12:54.140Z,0
2016-09-30T03:13:53.947Z,0
2016-09-30T03:14:53.974Z,0
2016-09-30T03:15:54.103Z,0
2016-09-30T03:16:54.008Z,0
2016-09-30T03:17:53.729Z,0
2016-09-30T03:18:54.168Z,0
2016-09-30T03:19:53.850Z,0
2016-09-30T03:20:54.559Z,0
2016-09-30T03:21:54.118Z,0
2016-09-30T03:22:53.677Z,0
2016-09-30T03:23:54.530Z,0
2016-09-30T03:24:53.924Z,0
2016-09-30T03:25:54.573Z,0
2016-09-30T03:26:53.912Z,0
2016-09-30T03:27:54.254Z,0
2016-09-30T03:28:54.911Z,0
2016-09-30T03:29:53.969Z,0
2016-09-30T03:30:54.377Z,0
2016-09-30T03:31:54.532Z,0
2016-09-30T03:32:54.672Z,0
2016-09-30T03:33:54.573Z,0
2016-09-30T03:34:54.649Z,0
2016-09-30T03:35:54.087Z,0
2016-09-30T03:36:54.641Z,0
2016-09-30T03:37:54.232Z,0
2016-09-30T03:38:54.199Z,0
2016-09-30T03:39:54.490Z,0
2016-09-30T03:40:54.202Z,0
2016-09-30T03:41:54.854Z,0
2016-09-30T03:42:54.594Z,0
2016-09-30T03:43:54.870Z,0
2016-09-30T03:44:54.594Z,0
2016-09-30T03:45:54.602Z,0
2016-09-30T03:46:54.936Z,0
2016-09-30T03:47:54.702Z,0
2016-09-30T03:48:54.996Z,0
2016-09-30T03:49:54.711Z,0
2016-09-30T03:50:54.735Z,0
2016-09-30T03:51:54.090Z,0
2016-09-30T03:52:54.737Z,0
2016-09-30T03:53:54.452Z,0
2016-09-30T03:54:55.120Z,0
2016-09-30T03:55:54.839Z,0
2016-09-30T03:56:55.129Z,0
2016-09-30T03:57:55.288Z,0
2016-09-30T03:58:55.166Z,0
2016-09-30T03:59:54.592Z,0
2016-09-30T04:00:54.978Z,0
2016-09-30T04:01:55.239Z,0
2016-09-30T04:02:55.343Z,0
2016-09-30T04:03:54.971Z,0
2016-09-30T04:04:55.319Z,0
2016-09-30T04:05:55.332Z,0
2016-09-30T04:06:55.332Z,0
2016-09-30T04:07:55.044Z,0
2016-09-30T04:08:55.432Z,0
2016-09-30T04:09:55.421Z,0
2016-09-30T04:10:55.441Z,0
2016-09-30T04:11:55.233Z,0
2016-09-30T04:12:55.489Z,0
2016-09-30T04:13:54.922Z,0
2016-09-30T04:14:55.213Z,0
2016-09-30T04:15:55.540Z,0
2016-09-30T04:16:55.549Z,0
2016-09-30T04:17:55.592Z,0
2016-09-30T04:18:55.612Z,0
2016-09-30T04:19:54.688Z,0
2016-09-30T04:20:55.628Z,0
2016-09-30T04:21:55.742Z,0
2016-09-30T04:22:55.371Z,0
2016-09-30T04:23:55.762Z,0
2016-09-30T04:24:55.871Z,0
2016-09-30T04:25:55.751Z,0
2016-09-30T04:26:55.883Z,0
2016-09-30T04:27:55.770Z,0
2016-09-30T04:28:55.497Z,0
2016-09-30T04:29:55.521Z,0
2016-09-30T04:30:55.912Z,0
2016-09-30T04:31:55.872Z,0
2016-09-30T04:32:55.875Z,0
2016-09-30T04:33:55.893Z,0
2016-09-30T04:34:55.612Z,0
2016-09-30T04:35:55.953Z,0
2016-09-30T04:36:55.690Z,0
2016-09-30T04:37:55.997Z,0
2016-09-30T04:38:56.003Z,0
2016-09-30T04:39:56.019Z,0
2016-09-30T04:40:56.032Z,0
2016-09-30T04:41:55.422Z,0
2016-09-30T04:42:55.803Z,0
2016-09-30T04:43:55.875Z,0
2016-09-30T04:44:55.192Z,0
2016-09-30T04:45:56.192Z,0
2016-09-30T04:46:56.193Z,0
2016-09-30T04:47:56.190Z,0
2016-09-30T04:48:56.223Z,0
2016-09-30T04:49:56.337Z,0
2016-09-30T04:50:56.002Z,0
2016-09-30T04:51:55.723Z,0
2016-09-30T04:52:55.979Z,0
2016-09-30T04:53:55.690Z,0
2016-09-30T04:54:56.338Z,0
2016-09-30T04:55:56.367Z,0
2016-09-30T04:56:56.060Z,0
2016-09-30T04:57:56.382Z,0
2016-09-30T04:58:56.090Z,0
2016-09-30T04:59:56.421Z,0
2016-09-30T05:00:56.213Z,0
2016-09-30T05:01:56.463Z,0
2016-09-30T05:02:56.589Z,0
2016-09-30T05:03:56.556Z,0
2016-09-30T05:04:56.570Z,0
2016-09-30T05:05:56.625Z,0
2016-09-30T05:06:55.945Z,0
2016-09-30T05:07:56.584Z,0
2016-09-30T05:08:56.307Z,0
2016-09-30T05:09:56.621Z,0
2016-09-30T05:10:56.384Z,0
2016-09-30T05:11:56.505Z,0
2016-09-30T05:12:56.823Z,0
2016-09-30T05:13:56.812Z,0
2016-09-30T05:14:56.783Z,0
2016-09-30T05:15:56.847Z,0
2016-09-30T05:16:56.461Z,0
2016-09-30T05:17:56.541Z,0
2016-09-30T05:18:56.811Z,0
2016-09-30T05:19:56.541Z,0
2016-09-30T05:20:56.257Z,5
2016-09-30T05:21:56.568Z,5
2016-09-30T05:22:56.568Z,5
2016-09-30T05:23:56.654Z,5
2016-09-30T05:24:56.940Z,5
2016-09-30T05:25:57.113Z,5
2016-09-30T05:26:57.107Z,5
2016-09-30T05:27:56.786Z,5
2016-09-30T05:28:56.762Z,5
2016-09-30T05:29:57.033Z,10
2016-09-30T05:30:56.927Z,10
2016-09-30T05:31:56.764Z,10
2016-09-30T05:32:56.782Z,10
2016-09-30T05:33:56.810Z,10
2016-09-30T05:34:56.524Z,15
2016-09-30T05:35:57.195Z,15
2016-09-30T05:36:56.902Z,15
2016-09-30T05:37:56.888Z,15
2016-09-30T05:38:57.339Z,20
2016-09-30T05:39:56.623Z,20
2016-09-30T05:40:56.752Z,20
2016-09-30T05:41:57.284Z,25
2016-09-30T05:42:57.297Z,25
2016-09-30T05:43:57.372Z,25
2016-09-30T05:44:57.034Z,30
2016-09-30T05:45:56.739Z,30
2016-09-30T05:46:57.061Z,30
2016-09-30T05:47:57.433Z,30
2016-09-30T05:48:56.808Z,35
2016-09-30T05:49:56.861Z,35
2016-09-30T05:50:57.490Z,35
2016-09-30T05:51:57.262Z,35
2016-09-30T05:52:57.191Z,35
2016-09-30T05:53:57.610Z,40
2016-09-30T05:54:56.928Z,40
2016-09-30T05:55:57.309Z,40
2016-09-30T05:56:57.586Z,40
2016-09-30T05:57:56.979Z,45
2016-09-30T05:58:57.374Z,45
2016-09-30T05:59:57.338Z,45
2016-09-30T06:00:57.352Z,50
2016-09-30T06:01:57.887Z,50
2016-09-30T06:02:57.873Z,50
2016-09-30T06:03:57.265Z,50
2016-09-30T06:04:57.594Z,50
2016-09-30T06:05:57.883Z,50
2016-09-30T06:06:57.890Z,50
2016-09-30T06:07:57.918Z,50
2016-09-30T06:08:57.942Z,50
2016-09-30T06:09:57.600Z,55
2016-09-30T06:10:57.596Z,55
2016-09-30T06:11:58.050Z,55
2016-09-30T06:12:57.293Z,55
2016-09-30T06:13:57.985Z,60
2016-09-30T06:14:57.316Z,60
2016-09-30T06:15:58.011Z,60
2016-09-30T06:16:57.692Z,65
2016-09-30T06:17:57.690Z,70
2016-09-30T06:18:58.053Z,70
2016-09-30T06:19:57.751Z,70
2016-09-30T06:20:57.758Z,75
2016-09-30T06:21:58.113Z,75
2016-09-30T06:22:58.120Z,70
2016-09-30T06:23:57.664Z,70
2016-09-30T06:24:57.877Z,75
2016-09-30T06:26:29.682Z,80
2016-09-30T06:26:58.010Z,80
2016-09-30T06:27:58.233Z,85
2016-09-30T06:28:58.330Z,85
2016-09-30T06:29:58.312Z,85
2016-09-30T06:30:57.669Z,90
2016-09-30T06:31:57.424Z,90
2016-09-30T06:32:58.348Z,90
2016-09-30T06:33:57.741Z,95
2016-09-30T06:34:58.373Z,95
2016-09-30T06:35:57.801Z,95
2016-09-30T06:36:57.779Z,100
2016-09-30T06:37:58.130Z,100
2016-09-30T06:38:58.473Z,100
2016-09-30T06:39:58.593Z,105
2016-09-30T06:40:57.875Z,100
2016-09-30T06:41:58.212Z,105
2016-09-30T06:42:58.231Z,105
2016-09-30T06:43:58.272Z,105
2016-09-30T06:44:58.393Z,110
2016-09-30T06:45:58.303Z,115
2016-09-30T06:46:58.312Z,120
2016-09-30T06:47:58.033Z,120
2016-09-30T06:48:58.648Z,120
2016-09-30T06:49:58.690Z,120
2016-09-30T06:50:58.201Z,125
2016-09-30T06:51:58.734Z,125
2016-09-30T06:52:58.473Z,130
2016-09-30T06:53:58.923Z,130
2016-09-30T06:54:58.508Z,130
2016-09-30T06:55:58.815Z,130
2016-09-30T06:56:58.823Z,135
2016-09-30T06:57:58.852Z,140
2016-09-30T06:58:58.885Z,145
2016-09-30T06:59:58.909Z,150
2016-09-30T07:00:58.611Z,150
2016-09-30T07:01:58.653Z,155
2016-09-30T07:02:58.954Z,155
2016-09-30T07:03:59.134Z,160
2016-09-30T07:04:59.081Z,160
2016-09-30T07:06:59.050Z,160
2016-09-30T07:07:58.749Z,165
2016-09-30T07:08:58.452Z,170
2016-09-30T07:09:58.501Z,170
2016-09-30T07:10:58.948Z,170
2016-09-30T07:11:58.845Z,175
2016-09-30T07:12:58.870Z,175
2016-09-30T07:13:58.898Z,180
2016-09-30T07:14:59.220Z,180
2016-09-30T07:15:59.329Z,180
2016-09-30T07:16:58.963Z,180
2016-09-30T07:17:59.272Z,190
2016-09-30T07:18:59.340Z,190
2016-09-30T07:19:59.323Z,190
2016-09-30T07:20:59.387Z,195
2016-09-30T07:21:59.033Z,195
2016-09-30T07:22:59.070Z,200
2016-09-30T07:23:59.107Z,200
2016-09-30T07:24:58.789Z,205
2016-09-30T07:25:59.522Z,210
2016-09-30T07:26:59.149Z,210
2016-09-30T07:27:59.522Z,215
2016-09-30T07:28:59.523Z,225
2016-09-30T07:29:59.311Z,225
2016-09-30T07:30:59.234Z,230
2016-09-30T07:31:59.259Z,230
2016-09-30T07:32:59.296Z,235
2016-09-30T07:33:59.610Z,240
2016-09-30T07:34:59.658Z,240
2016-09-30T07:35:59.030Z,240
2016-09-30T07:36:59.379Z,240
2016-09-30T07:37:59.083Z,240
2016-09-30T07:38:59.889Z,240
2016-09-30T07:39:59.439Z,240
2016-09-30T07:40:59.567Z,240
2016-09-30T07:41:59.784Z,240
2016-09-30T07:42:59.954Z,245
2016-09-30T07:43:59.524Z,235
2016-09-30T07:44:59.728Z,230
2016-09-30T07:45:59.876Z,230
2016-09-30T07:47:00.063Z,230
2016-09-30T07:47:59.956Z,235
2016-09-30T07:48:59.639Z,235
2016-09-30T07:49:59.973Z,230
2016-09-30T07:50:59.689Z,225
2016-09-30T07:51:59.736Z,225
2016-09-30T07:52:59.919Z,220
2016-09-30T07:53:59.847Z,220
2016-09-30T07:55:00.137Z,220
2016-09-30T07:56:00.100Z,215
2016-09-30T07:57:00.129Z,215
2016-09-30T07:58:00.150Z,210
2016-09-30T08:00:00.207Z,210
2016-09-30T08:01:32.214Z,210
2016-09-30T08:02:00.332Z,210
2016-09-30T08:02:59.669Z,205
2016-09-30T08:04:00.291Z,200
2016-09-30T08:05:00.359Z,200
2016-09-30T08:06:00.519Z,200
2016-09-30T08:07:00.364Z,195
2016-09-30T08:08:00.059Z,190
2016-09-30T08:08:59.796Z,195
2016-09-30T08:10:00.226Z,195
2016-09-30T08:10:59.829Z,195
2016-09-30T08:12:00.456Z,200
2016-09-30T08:13:00.275Z,205
2016-09-30T08:14:00.648Z,215
2016-09-30T08:15:00.639Z,220
2016-09-30T08:16:00.600Z,220
2016-09-30T08:17:00.289Z,225
2016-09-30T08:18:00.317Z,225
2016-09-30T08:19:00.633Z,230
2016-09-30T08:20:00.665Z,230
2016-09-30T08:21:00.707Z,240
2016-09-30T08:22:00.391Z,240
2016-09-30T08:23:00.421Z,240
2016-09-30T08:24:00.748Z,245
2016-09-30T08:25:00.577Z,245
2016-09-30T08:26:00.270Z,245
2016-09-30T08:27:00.620Z,245
2016-09-30T08:28:01.041Z,250
2016-09-30T08:29:00.556Z,250
2016-09-30T08:30:00.989Z,255
2016-09-30T08:31:00.961Z,260
2016-09-30T08:32:01.005Z,265
2016-09-30T08:33:00.029Z,265
2016-09-30T08:34:00.706Z,265
2016-09-30T08:35:01.026Z,265
2016-09-30T08:36:01.029Z,275
2016-09-30T08:37:01.460Z,280
2016-09-30T08:38:00.467Z,285
2016-09-30T08:39:01.451Z,295
2016-09-30T08:40:01.385Z,305
2016-09-30T08:41:01.456Z,310
2016-09-30T08:42:01.056Z,310
2016-09-30T08:43:01.461Z,310
2016-09-30T08:44:01.019Z,305
2016-09-30T08:45:01.478Z,310
2016-09-30T08:46:01.315Z,315
2016-09-30T08:47:01.368Z,315
2016-09-30T08:48:01.266Z,315
2016-09-30T08:49:01.397Z,325
2016-09-30T08:50:01.498Z,330
2016-09-30T08:51:01.624Z,320
2016-09-30T08:52:01.095Z,320
2016-09-30T08:53:01.086Z,325
2016-09-30T08:54:01.119Z,335
2016-09-30T08:55:01.162Z,340
2016-09-30T08:56:01.608Z,345
2016-09-30T08:57:01.513Z,355
2016-09-30T08:58:01.577Z,370
2016-09-30T08:59:01.409Z,375
2016-09-30T09:00:01.652Z,380
2016-09-30T09:01:01.315Z,390
2016-09-30T09:02:01.776Z,400
2016-09-30T09:03:01.203Z,395
2016-09-30T09:04:01.698Z,390
2016-09-30T09:05:01.743Z,390
2016-09-30T09:06:01.515Z,385
2016-09-30T09:07:01.154Z,380
2016-09-30T09:08:01.455Z,375
2016-09-30T09:09:01.492Z,370
2016-09-30T09:10:01.664Z,365
2016-09-30T09:11:01.549Z,360
2016-09-30T09:12:01.976Z,355
2016-09-30T09:13:01.916Z,360
2016-09-30T09:14:01.636Z,375
2016-09-30T09:15:02.059Z,385
2016-09-30T09:16:02.076Z,395
2016-09-30T09:17:02.020Z,415
2016-09-30T09:18:01.420Z,425
2016-09-30T09:19:01.199Z,425
2016-09-30T09:20:01.759Z,415
2016-09-30T09:21:01.485Z,405
2016-09-30T09:22:02.168Z,410
2016-09-30T09:23:01.912Z,395
2016-09-30T09:24:01.843Z,375
2016-09-30T09:25:01.875Z,375
2016-09-30T09:26:01.919Z,390
2016-09-30T09:27:01.948Z,395
2016-09-30T09:28:01.960Z,400
2016-09-30T09:29:02.293Z,400
2016-09-30T09:30:02.310Z,395
2016-09-30T09:31:02.357Z,385
2016-09-30T09:32:02.120Z,410
2016-09-30T09:33:02.096Z,425
2016-09-30T09:34:02.425Z,425
2016-09-30T09:35:02.200Z,420
2016-09-30T09:36:02.588Z,415
2016-09-30T09:37:02.196Z,415
2016-09-30T09:38:02.097Z,390
2016-09-30T09:39:02.263Z,380
2016-09-30T09:40:02.273Z,380
2016-09-30T09:41:02.595Z,390
2016-09-30T09:42:01.698Z,410
2016-09-30T09:43:02.645Z,415
2016-09-30T09:44:02.799Z,425
2016-09-30T09:45:02.428Z,430
2016-09-30T09:46:02.439Z,440
2016-09-30T09:47:02.517Z,470
2016-09-30T09:48:02.789Z,470
2016-09-30T09:49:02.596Z,440
2016-09-30T09:50:02.897Z,410
2016-09-30T09:51:02.871Z,395
2016-09-30T09:52:02.310Z,375
2016-09-30T09:53:02.717Z,340
2016-09-30T09:54:02.937Z,320
2016-09-30T09:55:02.228Z,330
2016-09-30T09:56:02.781Z,350
2016-09-30T09:57:03.054Z,375
2016-09-30T09:58:03.083Z,385
2016-09-30T09:59:02.782Z,400
2016-09-30T10:00:03.234Z,410
2016-09-30T10:01:02.809Z,400
2016-09-30T10:02:02.834Z,400
2016-09-30T10:03:02.644Z,415
2016-09-30T10:04:02.581Z,415
2016-09-30T10:05:02.599Z,410
2016-09-30T10:06:02.479Z,395
2016-09-30T10:07:03.052Z,370
2016-09-30T10:08:03.500Z,350
2016-09-30T10:09:03.034Z,340
2016-09-30T10:10:03.079Z,345
2016-09-30T10:11:03.059Z,365
2016-09-30T10:12:03.399Z,350
2016-09-30T10:13:03.140Z,315
2016-09-30T10:14:02.829Z,310
2016-09-30T10:15:03.491Z,310
2016-09-30T10:16:03.491Z,315
2016-09-30T10:17:03.790Z,320
2016-09-30T10:18:03.389Z,305
2016-09-30T10:19:03.361Z,325
2016-09-30T10:20:03.531Z,345
2016-09-30T10:21:03.421Z,350
2016-09-30T10:22:03.339Z,375
2016-09-30T10:23:03.672Z,415
2016-09-30T10:24:03.741Z,430
2016-09-30T10:25:03.754Z,430
2016-09-30T10:26:03.823Z,425
2016-09-30T10:27:02.572Z,425
2016-09-30T10:28:03.814Z,425
2016-09-30T10:29:03.209Z,425
2016-09-30T10:30:03.592Z,430
2016-09-30T10:31:03.581Z,440
2016-09-30T10:32:03.944Z,450
2016-09-30T10:33:03.654Z,460
2016-09-30T10:34:03.663Z,445
2016-09-30T10:35:03.693Z,440
2016-09-30T10:36:03.679Z,430
2016-09-30T10:37:04.056Z,395
2016-09-30T10:38:03.789Z,390
2016-09-30T10:39:04.086Z,385
2016-09-30T10:40:03.843Z,370
2016-09-30T10:41:03.841Z,350
2016-09-30T10:42:04.221Z,340
2016-09-30T10:43:03.913Z,310
2016-09-30T10:44:03.654Z,315
2016-09-30T10:45:03.962Z,335
2016-09-30T10:46:04.692Z,360
2016-09-30T10:47:04.704Z,355
2016-09-30T10:48:04.235Z,350
2016-09-30T10:49:04.241Z,340
2016-09-30T10:50:03.935Z,390
2016-09-30T10:51:04.270Z,445
2016-09-30T10:52:04.742Z,445
2016-09-30T10:53:04.246Z,455
2016-09-30T10:54:04.241Z,425
2016-09-30T10:55:04.811Z,375
2016-09-30T10:56:04.362Z,340
2016-09-30T10:57:04.363Z,330
2016-09-30T10:58:04.001Z,310
2016-09-30T10:59:04.403Z,295
2016-09-30T11:00:04.378Z,280
2016-09-30T11:01:04.788Z,270
2016-09-30T11:02:04.418Z,280
2016-09-30T11:03:04.478Z,300
2016-09-30T11:04:04.819Z,315
2016-09-30T11:05:04.464Z,320
2016-09-30T11:06:03.922Z,325
2016-09-30T11:07:04.843Z,325
2016-09-30T11:08:04.551Z,330
2016-09-30T11:09:04.788Z,365
2016-09-30T11:10:04.298Z,395
2016-09-30T11:11:04.990Z,380
2016-09-30T11:12:04.984Z,440
2016-09-30T11:13:04.832Z,420
2016-09-30T11:14:04.425Z,415
2016-09-30T11:15:05.262Z,360
2016-09-30T11:16:04.840Z,335
2016-09-30T11:17:05.100Z,370
2016-09-30T11:18:05.111Z,440
2016-09-30T11:19:05.126Z,470
2016-09-30T11:20:04.592Z,495
2016-09-30T11:21:05.189Z,525
2016-09-30T11:22:04.641Z,495
2016-09-30T11:23:05.360Z,415
2016-09-30T11:24:04.661Z,405
2016-09-30T11:25:05.323Z,390
2016-09-30T11:26:05.057Z,350
2016-09-30T11:27:05.414Z,340
2016-09-30T11:28:04.883Z,350
2016-09-30T11:29:04.569Z,350
2016-09-30T11:30:04.892Z,385
2016-09-30T11:31:05.144Z,395
2016-09-30T11:32:05.483Z,425
2016-09-30T11:33:04.952Z,405
2016-09-30T11:34:05.543Z,360
2016-09-30T11:35:05.233Z,340
2016-09-30T11:36:05.691Z,350
2016-09-30T11:37:05.315Z,355
2016-09-30T11:38:05.334Z,315
2016-09-30T11:39:05.382Z,335
2016-09-30T11:40:05.683Z,395
2016-09-30T11:41:05.465Z,410
2016-09-30T11:42:05.750Z,460
2016-09-30T11:43:05.453Z,460
2016-09-30T11:44:05.174Z,395
2016-09-30T11:45:05.848Z,425
2016-09-30T11:46:05.899Z,440
2016-09-30T11:47:05.883Z,495
2016-09-30T11:48:05.582Z,555
2016-09-30T11:49:05.719Z,480
2016-09-30T11:50:05.357Z,380
2016-09-30T11:51:06.045Z,355
2016-09-30T11:52:06.024Z,375
2016-09-30T11:53:06.069Z,440
2016-09-30T11:54:06.140Z,485
2016-09-30T11:55:05.482Z,475
2016-09-30T11:56:05.863Z,435
2016-09-30T11:57:05.893Z,430
2016-09-30T11:58:06.172Z,365
2016-09-30T11:59:05.899Z,300
2016-09-30T12:00:05.922Z,265
2016-09-30T12:01:06.261Z,250
2016-09-30T12:02:06.053Z,230
2016-09-30T12:03:05.996Z,235
2016-09-30T12:04:06.105Z,225
2016-09-30T12:05:06.463Z,210
2016-09-30T12:06:06.092Z,190
2016-09-30T12:07:06.180Z,175
2016-09-30T12:08:05.505Z,165
2016-09-30T12:09:06.473Z,150
2016-09-30T12:10:06.516Z,120
2016-09-30T12:11:05.911Z,115
2016-09-30T12:12:06.583Z,105
2016-09-30T12:13:06.571Z,100
2016-09-30T12:14:06.602Z,90
2016-09-30T12:15:06.055Z,95
2016-09-30T12:16:06.670Z,100
2016-09-30T12:17:06.794Z,90
2016-09-30T12:18:06.717Z,105
2016-09-30T12:19:06.661Z,130
2016-09-30T12:20:06.145Z,150
2016-09-30T12:21:06.787Z,160
2016-09-30T12:22:06.500Z,155
2016-09-30T12:23:06.540Z,145
2016-09-30T12:24:06.604Z,135
2016-09-30T12:25:06.676Z,125
2016-09-30T12:26:06.626Z,115
2016-09-30T12:27:06.432Z,115
2016-09-30T12:28:06.434Z,120
2016-09-30T12:29:07.034Z,140
2016-09-30T12:30:06.713Z,155
2016-09-30T12:31:07.093Z,175
2016-09-30T12:32:06.967Z,170
2016-09-30T12:33:06.790Z,150
2016-09-30T12:34:06.803Z,130
2016-09-30T12:35:07.133Z,120
2016-09-30T12:36:06.890Z,110
2016-09-30T12:37:06.260Z,100
2016-09-30T12:38:07.023Z,105
2016-09-30T12:39:06.914Z,110
2016-09-30T12:40:07.003Z,110
2016-09-30T12:41:06.952Z,110
2016-09-30T12:42:07.305Z,100
2016-09-30T12:43:06.993Z,95
2016-09-30T12:44:07.083Z,100
2016-09-30T12:45:06.773Z,100
2016-09-30T12:46:07.071Z,125
2016-09-30T12:47:06.822Z,155
2016-09-30T12:48:07.113Z,170
2016-09-30T12:49:07.556Z,195
2016-09-30T12:50:07.181Z,215
2016-09-30T12:51:06.899Z,210
2016-09-30T12:52:07.587Z,195
2016-09-30T12:53:06.955Z,180
2016-09-30T12:54:07.295Z,170
2016-09-30T12:55:07.273Z,165
2016-09-30T12:56:07.302Z,160
2016-09-30T12:57:07.311Z,160
2016-09-30T12:58:07.395Z,170
2016-09-30T12:59:06.756Z,185
2016-09-30T13:00:07.389Z,210
2016-09-30T13:01:06.822Z,260
2016-09-30T13:02:07.243Z,290
2016-09-30T13:03:07.993Z,290
2016-09-30T13:04:07.461Z,280
2016-09-30T13:05:08.070Z,285
2016-09-30T13:06:07.526Z,290
2016-09-30T13:07:08.042Z,300
2016-09-30T13:08:07.574Z,320
2016-09-30T13:09:07.610Z,315
2016-09-30T13:10:08.048Z,300
2016-09-30T13:11:07.648Z,290
2016-09-30T13:12:08.104Z,290
2016-09-30T13:13:08.178Z,275
2016-09-30T13:14:07.918Z,260
2016-09-30T13:15:08.191Z,235
2016-09-30T13:16:07.487Z,220
2016-09-30T13:17:08.138Z,210
2016-09-30T13:18:07.922Z,200
2016-09-30T13:19:07.831Z,200
2016-09-30T13:20:07.845Z,195
2016-09-30T13:21:07.250Z,195
2016-09-30T13:22:07.835Z,200
2016-09-30T13:23:07.933Z,205
2016-09-30T13:24:08.115Z,205
2016-09-30T13:25:08.117Z,205
2016-09-30T13:26:07.819Z,210
2016-09-30T13:27:08.147Z,225
2016-09-30T13:28:08.355Z,245
2016-09-30T13:29:08.186Z,245
2016-09-30T13:30:08.180Z,250
2016-09-30T13:31:08.521Z,260
2016-09-30T13:32:08.157Z,265
2016-09-30T13:33:08.143Z,265
2016-09-30T13:34:07.871Z,275
2016-09-30T13:35:08.214Z,275
2016-09-30T13:36:07.899Z,270
2016-09-30T13:37:08.613Z,255
2016-09-30T13:38:08.291Z,230
2016-09-30T13:39:08.282Z,210
2016-09-30T13:40:08.685Z,195
2016-09-30T13:41:08.632Z,185
2016-09-30T13:42:08.370Z,180
2016-09-30T13:43:08.723Z,175
2016-09-30T13:44:08.432Z,165
2016-09-30T13:45:09.010Z,160
2016-09-30T13:46:08.578Z,175
2016-09-30T13:47:08.811Z,180
2016-09-30T13:48:08.489Z,185
2016-09-30T13:49:08.838Z,190
2016-09-30T13:50:08.947Z,190
2016-09-30T13:51:08.566Z,185
2016-09-30T13:52:08.893Z,180
2016-09-30T13:53:08.923Z,180
2016-09-30T13:54:08.631Z,160
2016-09-30T13:55:08.720Z,155
2016-09-30T13:56:09.001Z,150
2016-09-30T13:57:09.002Z,150
2016-09-30T13:58:09.031Z,160
2016-09-30T13:59:08.800Z,165
2016-09-30T14:00:08.862Z,155
2016-09-30T14:01:08.815Z,160
2016-09-30T14:02:08.552Z,160
2016-09-30T14:03:08.734Z,155
2016-09-30T14:04:08.994Z,170
2016-09-30T14:05:09.182Z,180
2016-09-30T14:06:09.521Z,175
2016-09-30T14:07:08.910Z,175
2016-09-30T14:08:08.938Z,190
2016-09-30T14:09:09.008Z,200
2016-09-30T14:10:08.979Z,215
2016-09-30T14:11:09.676Z,205
2016-09-30T14:12:09.445Z,205
2016-09-30T14:13:09.072Z,200
2016-09-30T14:14:08.786Z,205